Pinero, Virginia
Current Conditions -  °F | °C
As of 1:55 PM on Sunday 23 Nov 2014 (Local Time) from KW75 Reporting Station
Clear Clear  
Wind Chill: 51°   Ceiling: Unl
Heat Index: 51°   Visibility: 10mi
Dew Point: 43°   Wind: 5mph
Humidity: 73%   Direction: 140°SE
Pressure: 30.14"   Gusts: NA
Location:  37.4386°N, 76.5499°W
Report Text: KW75 231855Z AUTO 14004KT 10SM CLR 11/06 A3014 RMK AO1 T01060059
Loading
Personal Weather Stations






























Interactive Weather Map New forecast layout! Learn more

10-Day Weather Forecast

Advertisements
Track Severe Weather on mobile